Time;durP1;ratioP1;P1;durP2;ratioP2;P2;SDS_P1;SDS_P2;PMS_P1;PMS_P2;Temp;Humidity;BMP_temperature;BMP_pressure;BME280_temperature;BME280_humidity;BME280_pressure;Samples;Min_cycle;Max_cycle;Signal;HPM_P1;HPM_P2
2021/12/16 00:08:18;;;;;;;35.03;14.80;;;-0.10;99.90;;;;;;4142291;28;20350;-65
2021/12/16 00:10:28;;;;;;;32.40;13.93;;;-0.10;99.90;;;;;;4142019;28;20295;-62
2021/12/16 00:31:46;;;;;;;44.33;18.30;;;-0.40;99.90;;;;;;4143328;28;20833;-60
2021/12/16 00:35:32;;;;;;;43.20;18.53;;;-0.40;99.90;;;;;;4142744;28;20317;-61
2021/12/16 00:37:33;;;;;;;45.83;18.90;;;-0.40;99.90;;;;;;4140222;28;20255;-59
2021/12/16 00:39:38;;;;;;;42.27;19.63;;;-0.40;99.90;;;;;;4142533;28;20267;-59
2021/12/16 00:41:41;;;;;;;41.20;18.57;;;-0.40;99.90;;;;;;4141205;28;20268;-65
2021/12/16 00:43:54;;;;;;;40.53;18.77;;;-0.40;99.90;;;;;;4142291;28;21151;-59
2021/12/16 00:54:06;;;;;;;38.13;17.40;;;-0.40;99.90;;;;;;4141417;28;20268;-66
2021/12/16 00:55:15;;;;;;;34.87;16.87;;;-0.50;99.90;;;;;;4141772;28;20333;-59
2021/12/16 00:57:17;;;;;;;32.70;15.90;;;-0.50;99.90;;;;;;4142154;28;20334;-60
2021/12/16 00:59:20;;;;;;;39.00;18.83;;;-0.50;99.90;;;;;;4141157;28;20982;-61
2021/12/16 01:33:40;;;;;;;49.03;20.27;;;-0.80;99.90;;;;;;4140815;28;20095;-60
2021/12/16 01:42:31;;;;;;;42.53;18.67;;;-0.90;99.90;;;;;;4140683;28;20767;-60
2021/12/16 01:51:36;;;;;;;45.40;19.93;;;-0.80;99.90;;;;;;4140304;28;20774;-59
2021/12/16 01:54:12;;;;;;;36.53;17.93;;;-0.80;99.90;;;;;;4141608;28;21219;-64
2021/12/16 01:56:12;;;;;;;39.50;17.60;;;-0.70;99.90;;;;;;4140525;28;20279;-60
2021/12/16 01:58:20;;;;;;;43.00;17.93;;;-0.70;99.90;;;;;;4140506;28;20295;-60
2021/12/16 02:00:59;;;;;;;44.10;17.90;;;-0.60;99.90;;;;;;4140857;28;20345;-57
2021/12/16 02:03:03;;;;;;;36.00;16.73;;;-0.60;99.90;;;;;;4140030;28;20275;-60
2021/12/16 02:08:18;;;;;;;34.50;16.70;;;-0.40;99.90;;;;;;4140381;28;20283;-61
2021/12/16 02:10:01;;;;;;;41.70;17.07;;;-0.40;99.90;;;;;;4138118;28;20357;-59
2021/12/16 02:36:59;;;;;;;34.93;15.73;;;0.00;99.90;;;;;;4146311;28;20263;-60
2021/12/16 02:39:21;;;;;;;36.07;15.33;;;0.10;99.90;;;;;;4145598;28;20279;-58
2021/12/16 02:41:23;;;;;;;35.43;15.83;;;0.10;99.90;;;;;;4146098;28;20799;-60
2021/12/16 02:50:16;;;;;;;37.95;15.07;;;0.00;99.90;;;;;;4145806;28;20345;-60
2021/12/16 02:52:21;;;;;;;34.83;14.63;;;-0.10;99.90;;;;;;4145681;28;20847;-60
2021/12/16 02:54:24;;;;;;;35.13;16.03;;;-0.20;99.90;;;;;;4146014;28;20289;-59
2021/12/16 02:56:28;;;;;;;32.60;15.40;;;-0.30;99.90;;;;;;4146110;28;20330;-60
2021/12/16 02:58:29;;;;;;;37.63;16.43;;;-0.30;99.90;;;;;;4145709;28;20287;-60
2021/12/16 03:00:38;;;;;;;36.53;17.03;;;-0.30;99.90;;;;;;4145243;28;20264;-58
2021/12/16 03:02:43;;;;;;;36.40;15.33;;;-0.40;99.90;;;;;;4146230;28;20255;-61
2021/12/16 03:04:48;;;;;;;40.30;17.37;;;-0.40;99.90;;;;;;4145265;28;20597;-60
2021/12/16 03:06:53;;;;;;;38.73;16.30;;;-0.40;99.90;;;;;;4146540;28;20273;-60
2021/12/16 03:08:54;;;;;;;39.10;17.53;;;-0.40;99.90;;;;;;4145016;28;20271;-60
2021/12/16 03:11:20;;;;;;;42.17;18.60;;;-0.40;99.90;;;;;;4146116;28;20267;-61
2021/12/16 03:13:29;;;;;;;45.20;20.00;;;-0.40;99.90;;;;;;4145113;28;20321;-59
2021/12/16 03:20:18;;;;;;;40.95;18.58;;;-0.40;99.90;;;;;;4146366;28;20330;-59
2021/12/16 03:25:08;;;;;;;49.17;19.47;;;-0.40;99.90;;;;;;4140660;28;20338;-60
2021/12/16 03:36:25;;;;;;;43.23;20.07;;;-0.30;99.90;;;;;;4142547;28;20088;-60
2021/12/16 03:38:26;;;;;;;48.37;18.63;;;-0.20;99.90;;;;;;4142292;28;20302;-57
2021/12/16 03:40:28;;;;;;;48.60;19.67;;;-0.20;99.90;;;;;;4143804;28;20667;-54
2021/12/16 03:42:34;;;;;;;43.00;18.03;;;-0.20;99.90;;;;;;4142825;28;20833;-60
2021/12/16 03:44:57;;;;;;;41.30;19.07;;;-0.20;99.90;;;;;;4143132;28;20310;-60
2021/12/16 03:46:58;;;;;;;42.13;19.80;;;-0.20;99.90;;;;;;4142074;28;20723;-59
2021/12/16 03:49:11;;;;;;;47.10;19.43;;;-0.10;99.90;;;;;;4143273;28;20313;-61
2021/12/16 03:51:39;;;;;;;51.53;19.33;;;-0.10;99.90;;;;;;4142088;28;20704;-60
2021/12/16 03:53:43;;;;;;;48.80;20.73;;;-0.10;99.90;;;;;;4143282;28;20302;-60
2021/12/16 03:55:45;;;;;;;51.43;20.77;;;-0.10;99.90;;;;;;4142114;28;21078;-57
2021/12/16 03:57:47;;;;;;;47.43;21.70;;;-0.10;99.90;;;;;;4143624;28;20799;-59
2021/12/16 03:59:50;;;;;;;46.53;21.47;;;-0.10;99.90;;;;;;4141606;28;20271;-60
2021/12/16 04:01:53;;;;;;;51.60;21.83;;;0.00;99.90;;;;;;4142904;28;20373;-60
2021/12/16 04:03:55;;;;;;;49.37;21.17;;;0.00;99.90;;;;;;4142205;28;20267;-59
2021/12/16 04:05:56;;;;;;;50.03;20.80;;;0.00;99.90;;;;;;4142531;28;20612;-59
2021/12/16 04:07:58;;;;;;;41.83;18.93;;;0.00;99.90;;;;;;4142568;28;20655;-57
2021/12/16 04:09:59;;;;;;;45.70;20.70;;;0.00;99.90;;;;;;4141382;28;20349;-58
2021/12/16 04:12:09;;;;;;;44.60;20.27;;;0.00;99.90;;;;;;4143120;28;20303;-61
2021/12/16 04:14:13;;;;;;;43.60;19.43;;;0.00;99.90;;;;;;4141733;28;20259;-59
2021/12/16 04:16:14;;;;;;;46.17;20.33;;;0.00;99.90;;;;;;4141693;28;20287;-60
2021/12/16 04:18:15;;;;;;;44.73;19.93;;;0.00;99.90;;;;;;4141775;28;20334;-60
2021/12/16 04:20:17;;;;;;;51.00;20.17;;;0.00;99.90;;;;;;4142715;28;20664;-59
2021/12/16 04:22:28;;;;;;;47.87;19.43;;;0.00;99.90;;;;;;4141650;28;20263;-60
2021/12/16 04:24:30;;;;;;;51.07;20.47;;;0.00;99.90;;;;;;4143372;28;20287;-57
2021/12/16 04:26:32;;;;;;;44.17;19.30;;;0.00;99.90;;;;;;4141889;28;20283;-59
2021/12/16 04:28:33;;;;;;;45.30;19.70;;;0.00;99.90;;;;;;4142960;28;20279;-60
2021/12/16 04:30:34;;;;;;;44.77;19.30;;;0.00;99.90;;;;;;4140948;28;20354;-58
2021/12/16 04:32:35;;;;;;;39.97;18.17;;;0.00;99.90;;;;;;4142776;28;20770;-59
2021/12/16 04:34:37;;;;;;;45.23;18.53;;;0.00;99.90;;;;;;4141111;28;20329;-58
2021/12/16 04:36:39;;;;;;;42.10;19.03;;;0.00;99.90;;;;;;4141971;28;20279;-59
2021/12/16 04:38:42;;;;;;;47.10;20.03;;;0.00;99.90;;;;;;4141295;28;20259;-56
2021/12/16 04:40:45;;;;;;;46.60;20.97;;;0.00;99.90;;;;;;4142041;28;20321;-61
2021/12/16 04:42:48;;;;;;;45.57;20.50;;;0.00;99.90;;;;;;4141642;28;20279;-61
2021/12/16 04:44:49;;;;;;;50.17;20.27;;;0.00;99.90;;;;;;4141435;28;20271;-60
2021/12/16 04:46:52;;;;;;;45.17;20.30;;;-0.10;99.90;;;;;;4141471;28;20294;-60
2021/12/16 04:48:56;;;;;;;45.20;21.07;;;-0.10;99.90;;;;;;4141550;28;20814;-59
2021/12/16 04:50:57;;;;;;;46.67;20.53;;;-0.10;99.90;;;;;;4141846;28;20850;-59
2021/12/16 04:52:59;;;;;;;46.60;19.87;;;-0.10;99.90;;;;;;4141150;28;20272;-61
2021/12/16 04:55:00;;;;;;;43.30;19.07;;;-0.10;99.90;;;;;;4141662;28;20267;-61
2021/12/16 04:57:02;;;;;;;43.87;19.23;;;-0.10;99.90;;;;;;4141254;28;20317;-61
2021/12/16 04:59:10;;;;;;;42.17;18.63;;;-0.10;99.90;;;;;;4141506;28;20275;-60
2021/12/16 05:01:12;;;;;;;42.27;18.47;;;-0.10;99.90;;;;;;4141079;28;20264;-59
2021/12/16 05:03:13;;;;;;;41.20;18.83;;;-0.10;99.90;;;;;;4142521;28;20341;-60
2021/12/16 05:05:14;;;;;;;42.90;19.30;;;-0.10;99.90;;;;;;4140769;28;20683;-59
2021/12/16 05:07:17;;;;;;;43.80;19.67;;;-0.10;99.90;;;;;;4141998;28;20275;-61
2021/12/16 05:11:46;;;;;;;37.90;18.07;;;-0.10;99.90;;;;;;4132909;28;20279;-60
2021/12/16 05:13:48;;;;;;;48.60;19.47;;;-0.10;99.90;;;;;;4140116;28;21056;-62
2021/12/16 05:15:51;;;;;;;50.50;19.30;;;-0.10;99.90;;;;;;4141579;28;20275;-65
2021/12/16 05:17:55;;;;;;;49.17;20.80;;;0.00;99.90;;;;;;4139942;28;20325;-61
2021/12/16 05:20:00;;;;;;;44.17;18.80;;;0.00;99.90;;;;;;4141527;28;20271;-60
2021/12/16 05:24:27;;;;;;;49.10;20.23;;;0.00;99.90;;;;;;4141664;28;20325;-62
2021/12/16 05:26:28;;;;;;;49.30;21.13;;;0.00;99.90;;;;;;4140267;28;20346;-62
2021/12/16 05:28:31;;;;;;;46.73;20.17;;;0.00;99.90;;;;;;4141773;28;20330;-61
2021/12/16 05:30:33;;;;;;;41.17;19.43;;;0.10;99.90;;;;;;4140092;28;20360;-61
2021/12/16 05:32:34;;;;;;;49.33;20.53;;;0.10;99.90;;;;;;4141148;28;20774;-64
2021/12/16 05:34:36;;;;;;;48.47;20.17;;;0.10;99.90;;;;;;4140531;28;21150;-61
2021/12/16 05:36:37;;;;;;;45.47;20.73;;;0.00;99.90;;;;;;4139900;28;20359;-60
2021/12/16 05:38:39;;;;;;;45.00;18.60;;;0.00;99.90;;;;;;4140694;28;20287;-60
2021/12/16 05:40:40;;;;;;;42.73;19.43;;;0.00;99.90;;;;;;4140148;28;20349;-61
2021/12/16 05:42:42;;;;;;;49.10;19.97;;;0.10;99.90;;;;;;4140903;28;20970;-64
2021/12/16 05:44:44;;;;;;;51.07;22.20;;;0.00;99.90;;;;;;4136545;28;20256;-65
2021/12/16 05:46:45;;;;;;;53.53;19.90;;;0.10;99.90;;;;;;4131287;28;20659;-62
2021/12/16 05:48:48;;;;;;;50.50;20.23;;;0.10;99.90;;;;;;4139592;28;20782;-64
2021/12/16 05:50:54;;;;;;;50.47;22.13;;;0.10;99.90;;;;;;4140572;28;20422;-61
2021/12/16 05:52:55;;;;;;;48.93;21.43;;;0.10;99.90;;;;;;4135454;28;20373;-62
2021/12/16 05:54:56;;;;;;;47.97;22.10;;;0.10;99.90;;;;;;4141094;28;20291;-61
2021/12/16 05:56:57;;;;;;;54.20;22.97;;;0.10;99.90;;;;;;4140502;28;20271;-61
2021/12/16 05:58:59;;;;;;;49.03;21.80;;;0.10;99.90;;;;;;4139809;28;20275;-63
2021/12/16 06:01:07;;;;;;;51.17;22.23;;;0.20;99.90;;;;;;4141491;28;20835;-60
2021/12/16 06:03:09;;;;;;;50.57;22.00;;;0.10;99.90;;;;;;4141386;28;20333;-62
2021/12/16 06:05:11;;;;;;;50.37;21.97;;;0.10;99.90;;;;;;4140064;28;20302;-62
2021/12/16 06:07:12;;;;;;;54.37;22.80;;;0.20;99.90;;;;;;4140288;28;20271;-62
2021/12/16 06:09:14;;;;;;;57.67;24.87;;;0.10;99.90;;;;;;4140100;28;20302;-62
2021/12/16 06:11:22;;;;;;;53.23;23.00;;;0.10;99.90;;;;;;4140179;28;20302;-61
2021/12/16 06:13:29;;;;;;;52.93;23.70;;;0.10;99.90;;;;;;4140610;28;20330;-61
2021/12/16 06:27:22;;;;;;;43.75;18.98;;;0.00;99.90;;;;;;4139389;28;20309;-62
2021/12/16 06:29:24;;;;;;;50.60;20.80;;;0.00;99.90;;;;;;4140745;28;20088;-62
2021/12/16 06:31:25;;;;;;;54.47;22.37;;;0.00;99.90;;;;;;4138946;28;20299;-62
2021/12/16 06:33:26;;;;;;;52.00;20.07;;;0.00;99.90;;;;;;4140421;28;20369;-61
2021/12/16 06:35:28;;;;;;;53.03;22.10;;;0.00;99.90;;;;;;4139894;28;20351;-62
2021/12/16 06:37:29;;;;;;;49.60;22.53;;;0.00;99.90;;;;;;4140030;28;20322;-62
2021/12/16 06:39:31;;;;;;;50.00;21.20;;;-0.10;99.90;;;;;;4139512;28;20263;-66
2021/12/16 06:41:37;;;;;;;54.37;21.70;;;0.00;99.90;;;;;;4140071;28;20271;-62
2021/12/16 06:43:38;;;;;;;48.10;21.83;;;0.00;99.90;;;;;;4140027;28;20267;-62
2021/12/16 06:45:43;;;;;;;58.37;25.77;;;0.00;99.90;;;;;;4139677;28;20291;-62
2021/12/16 06:47:50;;;;;;;131.90;56.77;;;0.00;99.90;;;;;;4140788;28;20394;-61
2021/12/16 06:49:53;;;;;;;103.00;45.20;;;0.00;99.90;;;;;;4139116;28;20271;-60
2021/12/16 06:51:59;;;;;;;76.37;33.93;;;0.00;99.90;;;;;;4140202;28;20291;-61
2021/12/16 06:54:05;;;;;;;53.73;24.90;;;-0.10;99.90;;;;;;4139693;28;20279;-61
2021/12/16 06:56:12;;;;;;;50.30;23.17;;;0.00;99.90;;;;;;4140525;28;20679;-61
2021/12/16 06:59:04;;;;;;;58.80;26.23;;;0.00;99.90;;;;;;4139549;28;20302;-60
2021/12/16 07:00:45;;;;;;;59.30;23.13;;;0.00;99.90;;;;;;4140342;28;20284;-61
2021/12/16 07:03:03;;;;;;;53.97;23.87;;;-0.10;99.90;;;;;;4139152;28;20275;-61
2021/12/16 07:05:06;;;;;;;62.03;25.33;;;-0.20;99.90;;;;;;4140419;28;20708;-62
2021/12/16 07:07:08;;;;;;;60.03;24.93;;;-0.30;99.90;;;;;;4139359;28;20280;-62
2021/12/16 07:09:13;;;;;;;71.13;26.50;;;-0.30;99.90;;;;;;4140636;28;20326;-63
2021/12/16 07:11:16;;;;;;;70.37;28.13;;;-0.30;99.90;;;;;;4142529;28;20294;-62
2021/12/16 07:13:28;;;;;;;71.33;30.60;;;-0.20;99.90;;;;;;4143857;28;20334;-61
2021/12/16 07:15:30;;;;;;;57.90;25.27;;;-0.10;99.90;;;;;;4142023;28;20276;-61
2021/12/16 07:17:31;;;;;;;53.40;21.87;;;-0.10;99.90;;;;;;4143895;28;20267;-62
2021/12/16 07:19:32;;;;;;;52.70;21.50;;;-0.10;99.90;;;;;;4142281;28;20322;-61
2021/12/16 07:21:37;;;;;;;52.30;20.50;;;-0.10;99.90;;;;;;4143003;28;20326;-61
2021/12/16 07:23:39;;;;;;;49.57;19.63;;;-0.10;99.90;;;;;;4141541;28;21051;-62
2021/12/16 07:25:40;;;;;;;51.97;21.50;;;0.00;99.90;;;;;;4143500;28;20682;-64
2021/12/16 07:27:43;;;;;;;68.50;28.30;;;-0.10;99.90;;;;;;4141630;28;20846;-61
2021/12/16 07:29:44;;;;;;;54.87;21.70;;;-0.10;99.90;;;;;;4142945;28;20821;-61
2021/12/16 07:31:45;;;;;;;68.07;20.57;;;0.00;99.90;;;;;;4141797;28;20303;-61
2021/12/16 07:33:46;;;;;;;49.07;20.03;;;0.10;99.90;;;;;;4142853;28;20342;-62
2021/12/16 07:35:49;;;;;;;45.17;19.53;;;0.10;99.90;;;;;;4142269;28;21135;-61
2021/12/16 07:37:51;;;;;;;52.93;19.83;;;0.10;99.90;;;;;;4142458;28;20271;-61
2021/12/16 07:39:52;;;;;;;49.23;18.97;;;0.00;99.90;;;;;;4142616;28;20810;-61
2021/12/16 07:41:54;;;;;;;46.33;18.73;;;0.00;99.90;;;;;;4141795;28;21100;-64
2021/12/16 07:45:57;;;;;;;51.53;19.17;;;0.00;99.90;;;;;;4141874;28;20671;-61
2021/12/16 07:47:59;;;;;;;51.87;19.10;;;0.10;99.90;;;;;;4142945;28;20377;-61
2021/12/16 07:50:00;;;;;;;48.63;17.33;;;0.10;99.90;;;;;;4141250;28;20366;-62
2021/12/16 07:52:04;;;;;;;42.33;16.23;;;0.10;99.90;;;;;;4143099;28;20775;-61
2021/12/16 07:54:07;;;;;;;50.40;18.00;;;0.10;99.90;;;;;;4141458;28;20271;-63
2021/12/16 07:56:10;;;;;;;46.17;16.77;;;0.00;99.90;;;;;;4143103;28;20804;-60
2021/12/16 07:58:12;;;;;;;40.53;16.50;;;0.00;99.90;;;;;;4141707;28;20275;-60
2021/12/16 08:00:26;;;;;;;48.57;15.80;;;0.00;99.90;;;;;;4142296;28;20731;-61
2021/12/16 08:02:27;;;;;;;45.07;16.63;;;-0.10;99.90;;;;;;4141223;28;20936;-60
2021/12/16 08:04:31;;;;;;;43.70;15.93;;;-0.10;99.90;;;;;;4142785;28;20267;-61
2021/12/16 08:06:33;;;;;;;42.60;16.50;;;-0.20;99.90;;;;;;4141531;28;20433;-61
2021/12/16 08:08:35;;;;;;;38.33;15.37;;;-0.10;99.90;;;;;;4142243;28;21043;-60
2021/12/16 08:10:37;;;;;;;43.77;15.47;;;-0.10;99.90;;;;;;4141307;28;20353;-61
2021/12/16 08:12:38;;;;;;;46.67;16.23;;;0.00;99.90;;;;;;4141600;28;20271;-61
2021/12/16 08:14:41;;;;;;;38.97;13.73;;;-0.10;99.90;;;;;;4141582;28;20562;-60
2021/12/16 08:16:42;;;;;;;35.53;12.57;;;-0.10;99.90;;;;;;4141762;28;20271;-60
2021/12/16 08:18:43;;;;;;;38.80;14.90;;;-0.10;99.90;;;;;;4141797;28;20832;-61
2021/12/16 08:20:45;;;;;;;38.20;13.60;;;-0.10;99.90;;;;;;4140560;28;20272;-62
2021/12/16 08:22:48;;;;;;;39.73;16.20;;;0.00;99.90;;;;;;4141509;28;20271;-61
2021/12/16 08:24:49;;;;;;;37.93;13.40;;;0.00;99.90;;;;;;4141387;28;21219;-59
2021/12/16 08:26:52;;;;;;;35.83;14.07;;;0.10;99.90;;;;;;4141953;28;20346;-61
2021/12/16 08:28:53;;;;;;;42.53;15.20;;;0.20;99.90;;;;;;4140802;28;20333;-61
2021/12/16 08:30:55;;;;;;;41.97;15.27;;;0.20;99.90;;;;;;4141590;28;20302;-60
2021/12/16 08:32:56;;;;;;;39.67;14.83;;;0.20;99.90;;;;;;4140704;28;20326;-61
2021/12/16 08:34:58;;;;;;;37.63;14.87;;;0.20;99.90;;;;;;4141826;28;20256;-61
2021/12/16 08:36:59;;;;;;;40.00;14.63;;;0.20;99.90;;;;;;4140469;28;20341;-61
2021/12/16 08:39:07;;;;;;;36.30;14.97;;;0.30;99.90;;;;;;4141907;28;20990;-61
2021/12/16 08:41:21;;;;;;;42.97;14.63;;;0.30;99.90;;;;;;4140344;28;20322;-62
2021/12/16 08:43:25;;;;;;;40.10;14.40;;;0.30;99.90;;;;;;4141356;28;20263;-61
2021/12/16 08:45:29;;;;;;;42.73;14.20;;;0.30;99.90;;;;;;4140085;28;20263;-61
2021/12/16 08:47:31;;;;;;;39.90;15.40;;;0.30;99.90;;;;;;4141185;28;20276;-61
2021/12/16 08:49:32;;;;;;;41.57;15.10;;;0.30;99.90;;;;;;4141137;28;21194;-61
2021/12/16 08:51:39;;;;;;;43.83;16.80;;;0.30;99.90;;;;;;4141351;28;20706;-61
2021/12/16 08:53:41;;;;;;;40.90;14.80;;;0.20;99.90;;;;;;4140714;28;20325;-61
2021/12/16 08:55:44;;;;;;;39.17;15.57;;;0.30;99.90;;;;;;4140917;28;20321;-60
2021/12/16 08:57:45;;;;;;;36.53;13.80;;;0.20;99.90;;;;;;4141328;28;20314;-61
2021/12/16 08:59:48;;;;;;;33.83;13.53;;;0.30;99.90;;;;;;4140487;28;20287;-61
2021/12/16 09:01:53;;;;;;;36.33;12.43;;;0.20;99.90;;;;;;4141112;28;20271;-61
2021/12/16 09:03:58;;;;;;;32.83;12.57;;;0.20;99.90;;;;;;4138863;28;20280;-61
2021/12/16 09:06:00;;;;;;;36.43;13.87;;;0.20;99.90;;;;;;4141902;28;20279;-61
2021/12/16 09:08:02;;;;;;;41.03;14.50;;;0.10;99.90;;;;;;4140231;28;20279;-60
2021/12/16 09:10:06;;;;;;;39.53;15.30;;;0.10;99.90;;;;;;4140376;28;20279;-60
2021/12/16 09:12:38;;;;;;;33.87;13.07;;;0.10;99.90;;;;;;4140258;28;20287;-61
2021/12/16 09:14:39;;;;;;;33.23;12.57;;;0.20;99.90;;;;;;4141545;28;20283;-61
2021/12/16 09:16:40;;;;;;;41.93;14.20;;;0.20;99.90;;;;;;4140186;28;20259;-61
2021/12/16 09:18:42;;;;;;;36.33;13.10;;;0.20;99.90;;;;;;4141369;28;20314;-62
2021/12/16 09:20:43;;;;;;;31.30;11.93;;;0.30;99.90;;;;;;4140472;28;20337;-60
2021/12/16 09:22:45;;;;;;;35.37;12.83;;;0.30;99.90;;;;;;4141305;28;20259;-59
2021/12/16 09:24:49;;;;;;;38.13;13.70;;;0.30;99.90;;;;;;4140433;28;20330;-62
2021/12/16 09:26:50;;;;;;;39.23;12.70;;;0.30;99.90;;;;;;4141470;28;20279;-62
2021/12/16 09:28:52;;;;;;;40.53;14.20;;;0.30;99.90;;;;;;4140487;28;20617;-62
2021/12/16 09:30:54;;;;;;;38.10;13.53;;;0.30;99.90;;;;;;4141618;28;20286;-63
2021/12/16 09:32:59;;;;;;;30.53;12.20;;;0.30;99.90;;;;;;4138942;28;20337;-61
2021/12/16 09:35:00;;;;;;;32.80;13.17;;;0.30;99.90;;;;;;4140901;28;20283;-61
2021/12/16 09:37:02;;;;;;;33.77;11.83;;;0.30;99.90;;;;;;4140378;28;20260;-63
2021/12/16 09:39:07;;;;;;;31.90;13.00;;;0.30;99.90;;;;;;4140664;28;20354;-62
2021/12/16 09:41:09;;;;;;;32.03;13.37;;;0.30;99.90;;;;;;4140452;28;20283;-61
2021/12/16 09:43:10;;;;;;;33.37;12.90;;;0.30;99.90;;;;;;4140034;28;20830;-62
2021/12/16 09:45:13;;;;;;;31.67;12.10;;;0.20;99.90;;;;;;4140132;28;20392;-62
2021/12/16 09:47:15;;;;;;;35.93;12.80;;;0.20;99.90;;;;;;4139779;28;20267;-61
2021/12/16 09:49:18;;;;;;;33.03;13.13;;;0.20;99.90;;;;;;4141114;28;20324;-60
2021/12/16 09:51:23;;;;;;;33.00;13.10;;;0.20;99.90;;;;;;4140125;28;20333;-61
2021/12/16 09:53:24;;;;;;;42.63;14.23;;;0.20;99.90;;;;;;4140942;28;20275;-60
2021/12/16 09:55:27;;;;;;;38.47;13.97;;;0.20;99.90;;;;;;4139947;28;20750;-60
2021/12/16 09:57:28;;;;;;;38.13;13.80;;;0.20;99.90;;;;;;4140640;28;20353;-61
2021/12/16 09:59:33;;;;;;;39.70;15.87;;;0.30;99.90;;;;;;4139961;28;20288;-61
2021/12/16 10:01:35;;;;;;;34.40;12.43;;;0.30;99.90;;;;;;4140661;28;20271;-61
2021/12/16 10:03:39;;;;;;;30.80;12.63;;;0.40;99.90;;;;;;4139855;28;20422;-61
2021/12/16 10:05:40;;;;;;;34.60;13.47;;;0.40;99.90;;;;;;4140617;28;20268;-61
2021/12/16 10:07:42;;;;;;;35.20;12.67;;;0.40;99.90;;;;;;4139206;28;20272;-60
2021/12/16 10:09:47;;;;;;;33.50;13.93;;;0.40;99.90;;;;;;4140591;28;20345;-63
2021/12/16 10:11:51;;;;;;;34.87;13.23;;;0.50;99.90;;;;;;4139803;28;20357;-61
2021/12/16 10:18:19;;;;;;;31.90;11.90;;;0.60;99.90;;;;;;4140329;28;20314;-61
2021/12/16 10:20:28;;;;;;;34.40;14.10;;;0.70;99.90;;;;;;4140208;28;20080;-61
2021/12/16 10:22:34;;;;;;;43.43;15.23;;;0.70;99.90;;;;;;4140216;28;20037;-61
2021/12/16 10:24:35;;;;;;;37.73;14.50;;;0.80;99.90;;;;;;4139931;28;20256;-63
2021/12/16 10:26:36;;;;;;;33.37;14.00;;;0.70;99.90;;;;;;4139840;28;20348;-61
2021/12/16 10:28:41;;;;;;;34.13;13.70;;;0.70;99.90;;;;;;4139693;28;20627;-61
2021/12/16 10:31:02;;;;;;;37.37;14.90;;;0.70;99.90;;;;;;4139941;28;20895;-62
2021/12/16 10:33:11;;;;;;;33.73;14.07;;;0.70;99.90;;;;;;4139661;28;20326;-60
2021/12/16 10:35:16;;;;;;;32.80;12.97;;;0.80;99.90;;;;;;4139860;28;20267;-61
2021/12/16 10:37:29;;;;;;;34.80;14.23;;;0.90;99.90;;;;;;4140247;28;20305;-61
2021/12/16 10:39:31;;;;;;;42.53;18.43;;;1.00;99.90;;;;;;4140346;28;20275;-62
2021/12/16 10:41:47;;;;;;;41.83;16.10;;;1.10;99.90;;;;;;4140094;28;20326;-65
2021/12/16 10:43:55;;;;;;;39.47;16.87;;;1.10;99.90;;;;;;4139663;28;20330;-61
2021/12/16 10:46:13;;;;;;;45.83;19.30;;;1.20;99.90;;;;;;4143230;28;21209;-62
2021/12/16 10:48:21;;;;;;;54.83;19.80;;;1.20;99.90;;;;;;4143378;28;20363;-61
2021/12/16 10:50:22;;;;;;;50.70;20.10;;;1.30;99.90;;;;;;4143570;28;20794;-58
2021/12/16 10:52:27;;;;;;;50.80;20.17;;;1.30;99.90;;;;;;4142643;28;20357;-62
2021/12/16 10:54:34;;;;;;;48.83;20.03;;;1.30;99.90;;;;;;4142529;28;20259;-62
2021/12/16 10:56:40;;;;;;;53.47;20.53;;;1.40;99.90;;;;;;4142677;28;20329;-63
2021/12/16 10:59:10;;;;;;;43.00;18.73;;;1.40;99.90;;;;;;4142753;28;20849;-61
2021/12/16 11:01:45;;;;;;;47.27;19.03;;;1.40;99.90;;;;;;4143083;28;20267;-66
2021/12/16 11:03:47;;;;;;;46.13;19.20;;;1.50;99.90;;;;;;4142351;28;20256;-63
2021/12/16 11:05:50;;;;;;;48.77;19.30;;;1.50;99.90;;;;;;4142965;28;20291;-62
2021/12/16 11:07:55;;;;;;;49.47;19.80;;;1.50;99.90;;;;;;4142413;28;20710;-62
2021/12/16 11:09:58;;;;;;;51.27;21.00;;;1.60;99.90;;;;;;4142973;28;20256;-62
2021/12/16 11:12:35;;;;;;;48.73;19.47;;;1.60;99.90;;;;;;4143001;28;20349;-62
2021/12/16 11:14:39;;;;;;;47.00;18.80;;;1.50;99.90;;;;;;4143015;28;20667;-64
2021/12/16 11:16:40;;;;;;;44.80;18.80;;;1.50;99.90;;;;;;4142139;28;21020;-61
2021/12/16 11:18:41;;;;;;;50.63;19.23;;;1.50;99.90;;;;;;4142272;28;20283;-61
2021/12/16 11:20:55;;;;;;;44.30;18.57;;;1.40;99.90;;;;;;4141768;28;20271;-62
2021/12/16 11:23:01;;;;;;;72.73;30.27;;;1.40;99.90;;;;;;4142745;28;20283;-63
2021/12/16 11:25:14;;;;;;;55.93;22.80;;;1.40;99.90;;;;;;4142294;28;20302;-62
2021/12/16 11:27:19;;;;;;;54.37;20.60;;;1.40;99.90;;;;;;4142657;28;20325;-61
2021/12/16 11:29:27;;;;;;;49.63;20.27;;;1.40;99.90;;;;;;4141889;28;20255;-61
2021/12/16 11:31:32;;;;;;;44.23;17.83;;;1.40;99.90;;;;;;4142725;28;20374;-61
2021/12/16 11:33:38;;;;;;;46.27;18.17;;;1.50;99.90;;;;;;4142154;28;20739;-63
2021/12/16 11:35:43;;;;;;;38.47;16.97;;;1.40;99.90;;;;;;4141862;28;21182;-63
2021/12/16 11:37:48;;;;;;;45.10;18.70;;;1.40;99.90;;;;;;4142723;28;20267;-62
2021/12/16 11:39:49;;;;;;;46.63;19.60;;;1.40;99.90;;;;;;4142465;28;20272;-61
2021/12/16 11:42:00;;;;;;;57.90;20.33;;;1.30;99.90;;;;;;4142806;28;20345;-61
2021/12/16 11:44:09;;;;;;;49.97;20.95;;;1.40;99.90;;;;;;4142145;28;20291;-61
2021/12/16 11:46:34;;;;;;;49.83;19.70;;;1.50;99.90;;;;;;4142426;28;20160;-63
2021/12/16 11:48:37;;;;;;;45.07;18.43;;;1.60;99.90;;;;;;4142147;28;21163;-61
2021/12/16 11:50:41;;;;;;;48.80;19.27;;;1.70;99.90;;;;;;4142655;28;20320;-63
2021/12/16 11:52:44;;;;;;;42.50;17.87;;;1.80;99.90;;;;;;4141111;28;20291;-62
2021/12/16 11:54:55;;;;;;;45.87;17.87;;;1.80;99.90;;;;;;4142634;28;20338;-61
2021/12/16 11:57:07;;;;;;;45.13;20.30;;;1.80;99.90;;;;;;4140118;28;20279;-63
2021/12/16 11:59:10;;;;;;;42.70;18.53;;;1.80;99.90;;;;;;4142425;28;20731;-61
2021/12/16 12:01:29;;;;;;;43.10;19.20;;;1.80;99.90;;;;;;4140065;28;20675;-62
2021/12/16 12:03:34;;;;;;;49.23;20.53;;;1.70;99.90;;;;;;4142389;28;20287;-61
2021/12/16 12:05:42;;;;;;;43.63;20.43;;;1.70;99.90;;;;;;4141068;28;20271;-61
2021/12/16 12:07:51;;;;;;;48.13;20.70;;;1.70;99.90;;;;;;4142424;28;20671;-63
2021/12/16 12:09:53;;;;;;;48.23;20.40;;;1.70;99.90;;;;;;4140868;28;20263;-61
2021/12/16 12:11:54;;;;;;;50.67;20.87;;;1.70;99.90;;;;;;4141750;28;20311;-62
2021/12/16 12:14:01;;;;;;;45.20;20.87;;;1.60;99.90;;;;;;4141071;28;20683;-61
2021/12/16 12:16:05;;;;;;;42.37;19.07;;;1.60;99.90;;;;;;4142241;28;20272;-65
2021/12/16 12:18:06;;;;;;;43.03;19.03;;;1.60;99.90;;;;;;4141010;28;20259;-69
2021/12/16 12:20:08;;;;;;;47.13;18.97;;;1.60;99.90;;;;;;4142213;28;20272;-62
2021/12/16 12:22:09;;;;;;;42.40;17.17;;;1.60;99.90;;;;;;4141278;28;20271;-66
2021/12/16 12:24:36;;;;;;;40.60;17.17;;;1.70;99.90;;;;;;4141935;28;20301;-63
2021/12/16 12:26:46;;;;;;;38.57;17.33;;;1.70;99.90;;;;;;4140519;28;21126;-62
2021/12/16 12:28:50;;;;;;;50.13;17.45;;;1.60;99.90;;;;;;4141527;28;20342;-62
2021/12/16 12:30:51;;;;;;;50.90;19.73;;;1.60;99.90;;;;;;4140919;28;20069;-65
2021/12/16 12:32:52;;;;;;;41.67;18.00;;;1.50;99.90;;;;;;4142359;28;20283;-61
2021/12/16 12:35:06;;;;;;;43.43;19.93;;;1.50;99.90;;;;;;4140953;28;20271;-61
2021/12/16 12:37:11;;;;;;;44.77;18.50;;;1.60;99.90;;;;;;4142155;28;20330;-62
2021/12/16 12:39:17;;;;;;;48.87;20.83;;;1.60;99.90;;;;;;4140700;28;20306;-61
2021/12/16 12:41:19;;;;;;;48.53;20.43;;;1.60;99.90;;;;;;4141951;28;20334;-61
2021/12/16 12:43:22;;;;;;;47.63;20.30;;;1.50;99.90;;;;;;4139036;28;20271;-61
2021/12/16 12:45:29;;;;;;;49.30;21.13;;;1.50;99.90;;;;;;4141586;28;20757;-63
2021/12/16 12:47:35;;;;;;;51.60;21.97;;;1.50;99.90;;;;;;4140997;28;20267;-61
2021/12/16 12:49:37;;;;;;;59.70;23.00;;;1.50;99.90;;;;;;4141513;28;20279;-61
2021/12/16 12:51:41;;;;;;;53.33;23.43;;;1.50;99.90;;;;;;4140555;28;20784;-61
2021/12/16 12:53:49;;;;;;;51.20;21.90;;;1.50;99.90;;;;;;4140775;28;20288;-62
2021/12/16 12:55:56;;;;;;;58.07;22.23;;;1.50;99.90;;;;;;4141126;28;20255;-62
2021/12/16 12:58:08;;;;;;;56.70;23.43;;;1.50;99.90;;;;;;4140865;28;20803;-61
2021/12/16 13:00:47;;;;;;;47.57;20.87;;;1.50;99.90;;;;;;4140794;28;21052;-62
2021/12/16 13:02:59;;;;;;;46.70;20.90;;;1.50;99.90;;;;;;4138248;28;20295;-64
2021/12/16 13:05:04;;;;;;;57.90;20.70;;;1.50;99.90;;;;;;4140236;28;20325;-61
2021/12/16 13:07:06;;;;;;;54.50;20.00;;;1.50;99.90;;;;;;4141076;28;20763;-61
2021/12/16 13:09:25;;;;;;;48.37;19.23;;;1.40;99.90;;;;;;4140292;28;20398;-61
2021/12/16 13:11:29;;;;;;;51.77;18.57;;;1.50;99.90;;;;;;4141391;28;20826;-62
2021/12/16 13:13:35;;;;;;;46.13;18.80;;;1.50;99.90;;;;;;4140271;28;20310;-62
2021/12/16 13:25:32;;;;;;;42.40;16.47;;;1.40;99.90;;;;;;4141076;28;20361;-61